createdAt,value
2018-05-06T00:00:05.109Z,5.90
2018-05-06T00:02:33.416Z,6.40
2018-05-06T00:05:01.777Z,6.43
2018-05-06T00:07:30.153Z,6.47
2018-05-06T00:09:59.287Z,6.47
2018-05-06T00:12:27.647Z,7.30
2018-05-06T00:14:56.220Z,7.63
2018-05-06T00:17:25.283Z,6.60
2018-05-06T00:19:54.443Z,6.63
2018-05-06T00:22:23.563Z,6.20
2018-05-06T00:24:52.740Z,7.27
2018-05-06T00:27:21.091Z,6.67
2018-05-06T00:29:49.489Z,5.77
2018-05-06T00:32:17.838Z,5.33
2018-05-06T00:34:47.677Z,5.67
2018-05-06T00:37:16.022Z,5.50
2018-05-06T00:39:44.316Z,4.87
2018-05-06T00:42:14.182Z,5.83
2018-05-06T00:44:43.277Z,4.77
2018-05-06T00:47:11.613Z,7.63
2018-05-06T00:49:39.957Z,5.20
2018-05-06T00:52:08.538Z,5.23
2018-05-06T00:54:43.644Z,5.60
2018-05-06T00:57:13.481Z,8.80
2018-05-06T00:59:42.057Z,3.50
2018-05-06T01:02:10.446Z,5.00
2018-05-06T01:04:38.808Z,4.60
2018-05-06T01:07:07.193Z,5.00
2018-05-06T01:09:36.598Z,5.90
2018-05-06T01:12:04.917Z,4.47
2018-05-06T01:14:33.267Z,5.20
2018-05-06T01:17:01.632Z,4.70
2018-05-06T01:19:30.314Z,4.30
2018-05-06T01:21:59.449Z,4.23
2018-05-06T01:24:27.809Z,4.13
2018-05-06T01:26:56.258Z,3.73
2018-05-06T01:29:24.937Z,4.30
2018-05-06T01:31:53.329Z,3.73
2018-05-06T01:34:22.420Z,4.93
2018-05-06T01:36:51.494Z,5.97
2018-05-06T01:39:19.930Z,7.90
2018-05-06T01:41:49.391Z,4.70
2018-05-06T01:44:18.095Z,6.10
2018-05-06T01:46:46.456Z,4.53
2018-05-06T01:49:14.873Z,5.67
2018-05-06T01:51:43.316Z,4.47
2018-05-06T01:54:11.816Z,4.30
2018-05-06T01:56:40.861Z,3.80
2018-05-06T01:59:09.157Z,4.10
2018-05-06T02:01:37.495Z,4.03
2018-05-06T02:04:05.772Z,6.80
2018-05-06T02:06:34.104Z,5.00
2018-05-06T02:09:03.714Z,4.60
2018-05-06T02:11:33.004Z,5.33
2018-05-06T02:14:01.367Z,4.27
2018-05-06T02:16:29.697Z,4.10
2018-05-06T02:18:58.870Z,5.00
2018-05-06T02:21:27.577Z,4.23
2018-05-06T02:23:55.980Z,4.83
2018-05-06T02:26:24.396Z,3.27
2018-05-06T02:28:54.348Z,5.40
2018-05-06T02:31:23.499Z,5.40
2018-05-06T02:33:51.846Z,4.53
2018-05-06T02:38:54.988Z,5.13
2018-05-06T02:41:23.385Z,4.50
2018-05-06T02:43:52.581Z,4.43
2018-05-06T02:46:21.594Z,4.90
2018-05-06T02:48:50.806Z,5.40
2018-05-06T02:51:19.134Z,4.57
2018-05-06T02:53:47.542Z,5.47
2018-05-06T02:56:18.450Z,4.90
2018-05-06T02:58:46.795Z,5.53
2018-05-06T03:01:15.160Z,4.53
2018-05-06T03:03:43.475Z,8.33
2018-05-06T03:06:11.986Z,4.33
2018-05-06T03:08:40.394Z,5.60
2018-05-06T03:11:08.943Z,5.43
2018-05-06T03:13:37.282Z,4.43
2018-05-06T03:16:06.610Z,7.03
2018-05-06T03:18:34.940Z,5.80
2018-05-06T03:21:03.487Z,4.17
2018-05-06T03:23:32.597Z,4.30
2018-05-06T03:26:01.677Z,4.80
2018-05-06T03:28:30.002Z,4.80
2018-05-06T03:30:58.420Z,4.73
2018-05-06T03:33:26.751Z,6.47
2018-05-06T03:35:55.050Z,4.57
2018-05-06T03:38:23.441Z,5.40
2018-05-06T03:40:52.574Z,4.87
2018-05-06T03:43:20.917Z,3.97
2018-05-06T03:45:49.332Z,6.97
2018-05-06T03:48:18.547Z,4.20
2018-05-06T03:50:46.943Z,5.37
2018-05-06T03:53:16.317Z,4.93
2018-05-06T03:55:47.134Z,4.80
2018-05-06T03:58:27.340Z,5.13
2018-05-06T04:00:55.829Z,4.40
2018-05-06T04:03:24.659Z,4.80
2018-05-06T04:05:53.511Z,5.43
2018-05-06T04:08:22.695Z,5.10
2018-05-06T04:10:51.127Z,4.77
2018-05-06T04:13:19.501Z,6.57
2018-05-06T04:15:47.986Z,4.50
2018-05-06T04:18:16.597Z,5.80
2018-05-06T04:20:45.051Z,4.73
2018-05-06T04:23:14.116Z,9.20
2018-05-06T04:25:42.469Z,6.07
2018-05-06T04:28:10.807Z,6.57
2018-05-06T04:30:39.227Z,5.87
2018-05-06T04:33:07.864Z,8.03
2018-05-06T04:35:37.044Z,7.27
2018-05-06T04:38:05.543Z,8.60
2018-05-06T04:40:33.916Z,13.30
2018-05-06T04:43:03.214Z,19.50
2018-05-06T04:45:31.611Z,12.93
2018-05-06T04:48:00.750Z,12.53
2018-05-06T04:50:29.123Z,7.13
2018-05-06T04:52:57.490Z,7.37
2018-05-06T04:55:25.772Z,7.07
2018-05-06T04:57:54.111Z,12.13
2018-05-06T05:00:23.205Z,5.50
2018-05-06T05:02:51.500Z,6.03
2018-05-06T05:05:19.856Z,7.27
2018-05-06T05:07:48.931Z,7.20
2018-05-06T05:10:17.234Z,5.83
2018-05-06T05:12:46.672Z,6.30
2018-05-06T05:15:14.940Z,8.20
2018-05-06T05:17:43.227Z,6.87
2018-05-06T05:20:11.535Z,6.70
2018-05-06T05:22:39.839Z,6.20
2018-05-06T05:25:08.115Z,4.73
2018-05-06T05:27:36.423Z,6.20
2018-05-06T05:30:04.712Z,6.73
2018-05-06T05:32:33.023Z,8.27
2018-05-06T05:35:01.315Z,7.80
2018-05-06T05:37:29.603Z,7.17
2018-05-06T05:39:58.668Z,7.50
2018-05-06T05:42:26.954Z,6.70
2018-05-06T05:44:55.228Z,7.03
2018-05-06T05:47:23.542Z,6.50
2018-05-06T05:49:52.567Z,6.53
2018-05-06T05:52:20.851Z,7.03
2018-05-06T05:54:49.134Z,12.90
2018-05-06T05:57:17.438Z,5.43
2018-05-06T05:59:45.807Z,6.40
2018-05-06T06:02:14.083Z,5.93
2018-05-06T06:04:42.431Z,5.73
2018-05-06T06:07:10.760Z,8.80
2018-05-06T06:09:39.100Z,5.83
2018-05-06T06:12:07.409Z,5.83
2018-05-06T06:14:35.659Z,5.00
2018-05-06T06:17:03.978Z,5.10
2018-05-06T06:19:33.511Z,5.93
2018-05-06T06:22:01.841Z,5.60
2018-05-06T06:24:30.139Z,6.87
2018-05-06T06:26:59.171Z,4.63
2018-05-06T06:29:27.468Z,6.17
2018-05-06T06:31:55.787Z,5.70
2018-05-06T06:34:24.071Z,5.20
2018-05-06T06:36:52.360Z,6.00
2018-05-06T06:39:20.637Z,4.93
2018-05-06T06:41:48.966Z,7.90
2018-05-06T06:44:18.068Z,5.40
2018-05-06T06:46:46.366Z,7.30
2018-05-06T06:49:14.667Z,6.60
2018-05-06T06:51:42.949Z,5.60
2018-05-06T06:54:11.254Z,5.80
2018-05-06T06:56:39.548Z,6.87
2018-05-06T06:59:08.110Z,5.60
2018-05-06T07:01:36.421Z,6.63
2018-05-06T07:04:04.707Z,8.63
2018-05-06T07:06:33.100Z,6.37
2018-05-06T07:09:01.385Z,5.90
2018-05-06T07:11:29.668Z,7.17
2018-05-06T07:13:57.978Z,6.57
2018-05-06T07:16:26.556Z,6.27
2018-05-06T07:18:54.859Z,5.57
2018-05-06T07:21:23.167Z,6.63
2018-05-06T07:23:51.454Z,7.43
2018-05-06T07:26:19.732Z,6.90
2018-05-06T07:28:48.044Z,9.30
2018-05-06T07:31:16.442Z,6.43
2018-05-06T07:33:44.699Z,6.80
2018-05-06T07:36:14.499Z,5.83
2018-05-06T07:38:42.787Z,7.20
2018-05-06T07:41:11.088Z,6.50
2018-05-06T07:43:40.147Z,6.87
2018-05-06T07:46:08.415Z,7.93
2018-05-06T07:48:36.694Z,6.90
2018-05-06T07:51:04.976Z,6.83
2018-05-06T07:53:33.248Z,7.60
2018-05-06T07:56:01.544Z,5.83
2018-05-06T07:58:29.852Z,6.20
2018-05-06T08:00:58.160Z,6.40
2018-05-06T08:03:26.459Z,7.03
2018-05-06T08:05:54.720Z,6.50
2018-05-06T08:08:23.020Z,6.50
2018-05-06T08:10:51.407Z,5.27
2018-05-06T08:13:20.423Z,6.27
2018-05-06T08:15:49.471Z,5.33
2018-05-06T08:18:17.743Z,6.30
2018-05-06T08:20:46.061Z,6.97
2018-05-06T08:23:14.356Z,6.20
2018-05-06T08:25:42.641Z,5.20
2018-05-06T08:28:10.986Z,5.50
2018-05-06T08:30:39.292Z,7.03
2018-05-06T08:33:08.521Z,6.90
2018-05-06T08:35:36.819Z,5.57
2018-05-06T08:38:05.220Z,5.80
2018-05-06T08:40:33.496Z,5.37
2018-05-06T08:43:02.585Z,5.70
2018-05-06T08:45:30.955Z,6.00
2018-05-06T08:47:59.244Z,5.67
2018-05-06T08:50:27.559Z,6.23
2018-05-06T08:52:55.886Z,6.30
2018-05-06T08:55:24.155Z,6.00
2018-05-06T08:57:52.440Z,6.20
2018-05-06T09:00:21.132Z,5.73
2018-05-06T09:02:49.558Z,5.90
2018-05-06T09:05:17.829Z,5.70
2018-05-06T09:07:46.124Z,7.10
2018-05-06T09:10:14.416Z,6.57
2018-05-06T09:12:42.775Z,4.90
2018-05-06T09:15:11.055Z,7.40
2018-05-06T09:17:39.397Z,4.97
2018-05-06T09:20:07.760Z,4.97
2018-05-06T09:22:36.055Z,5.30
2018-05-06T09:25:04.432Z,4.73
2018-05-06T09:27:32.804Z,5.73
2018-05-06T09:30:01.860Z,4.73
2018-05-06T09:32:30.129Z,6.70
2018-05-06T09:34:58.448Z,5.90
2018-05-06T09:37:26.837Z,4.60
2018-05-06T09:39:55.140Z,4.30
2018-05-06T09:42:23.450Z,5.50
2018-05-06T09:44:51.758Z,5.00
2018-05-06T09:47:20.009Z,3.60
2018-05-06T09:49:48.304Z,4.80
2018-05-06T09:52:17.352Z,3.90
2018-05-06T09:54:45.627Z,4.87
2018-05-06T09:57:13.904Z,4.37
2018-05-06T09:59:42.222Z,4.00
2018-05-06T10:02:10.576Z,4.60
2018-05-06T10:04:38.847Z,8.83
2018-05-06T10:07:07.892Z,3.77
2018-05-06T10:09:36.948Z,3.03
2018-05-06T10:12:05.986Z,3.50
2018-05-06T10:14:34.267Z,4.97
2018-05-06T10:17:03.343Z,3.67
2018-05-06T10:19:31.705Z,3.17
2018-05-06T10:21:59.986Z,2.60
2018-05-06T10:24:28.325Z,3.80
2018-05-06T10:26:56.691Z,3.63
2018-05-06T10:29:24.982Z,4.10
2018-05-06T10:31:53.271Z,4.10
2018-05-06T10:34:21.583Z,5.10
2018-05-06T10:36:49.823Z,4.27
2018-05-06T10:39:18.162Z,4.00
2018-05-06T10:41:46.443Z,4.60
2018-05-06T10:44:14.803Z,3.97
2018-05-06T10:46:43.163Z,4.40
2018-05-06T10:49:12.292Z,4.60
2018-05-06T10:51:40.528Z,5.30
2018-05-06T10:54:08.811Z,3.43
2018-05-06T10:56:37.913Z,3.37
2018-05-06T10:59:06.193Z,4.70
2018-05-06T11:01:34.498Z,3.37
2018-05-06T11:04:02.812Z,6.50
2018-05-06T11:06:31.191Z,3.30
2018-05-06T11:08:59.547Z,3.60
2018-05-06T11:11:27.831Z,4.20
2018-05-06T11:13:56.134Z,3.30
2018-05-06T11:16:24.417Z,3.50
2018-05-06T11:18:52.684Z,3.67
2018-05-06T11:21:20.955Z,5.23
2018-05-06T11:23:49.280Z,3.63
2018-05-06T11:26:17.561Z,3.30
2018-05-06T11:28:46.587Z,2.70
2018-05-06T11:31:15.871Z,3.87
2018-05-06T11:33:44.167Z,4.47
2018-05-06T11:36:12.498Z,5.33
2018-05-06T11:38:40.856Z,2.90
2018-05-06T11:41:09.166Z,2.60
2018-05-06T11:43:38.228Z,3.17
2018-05-06T11:46:06.512Z,5.03
2018-05-06T11:48:34.853Z,3.40
2018-05-06T11:51:03.135Z,3.43
2018-05-06T11:53:31.440Z,4.33
2018-05-06T11:55:59.719Z,4.93
2018-05-06T11:58:28.807Z,5.13
2018-05-06T12:00:57.124Z,4.20
2018-05-06T12:03:25.374Z,5.00
2018-05-06T12:05:53.741Z,4.10
2018-05-06T12:08:22.119Z,5.07
2018-05-06T12:10:50.400Z,4.43
2018-05-06T12:13:19.491Z,3.87
2018-05-06T12:15:47.858Z,4.50
2018-05-06T12:18:16.057Z,4.50
2018-05-06T12:20:45.137Z,4.30
2018-05-06T12:23:13.415Z,4.00
2018-05-06T12:25:41.699Z,4.77
2018-05-06T12:28:09.967Z,4.13
2018-05-06T12:30:39.781Z,3.40
2018-05-06T12:33:08.051Z,3.20
2018-05-06T12:35:36.327Z,4.07
2018-05-06T12:38:04.631Z,3.93
2018-05-06T12:40:33.679Z,5.40
2018-05-06T12:43:01.956Z,4.00
2018-05-06T12:45:30.248Z,3.20
2018-05-06T12:47:58.535Z,3.40
2018-05-06T12:50:27.015Z,5.70
2018-05-06T12:52:55.256Z,4.70
2018-05-06T12:55:23.564Z,3.20
2018-05-06T12:57:51.843Z,3.13
2018-05-06T13:00:20.130Z,2.10
2018-05-06T13:02:48.435Z,2.83
2018-05-06T13:05:16.731Z,3.50
2018-05-06T13:07:45.055Z,3.33
2018-05-06T13:10:13.443Z,6.50
2018-05-06T13:12:41.692Z,3.50
2018-05-06T13:15:09.974Z,3.73
2018-05-06T13:17:38.264Z,3.33
2018-05-06T13:20:06.558Z,3.77
2018-05-06T13:22:35.621Z,3.23
2018-05-06T13:25:04.833Z,2.53
2018-05-06T13:27:33.131Z,4.87
2018-05-06T13:30:02.362Z,4.10
2018-05-06T13:32:30.587Z,6.97
2018-05-06T13:34:59.048Z,4.03
2018-05-06T13:37:27.327Z,5.47
2018-05-06T13:42:53.361Z,3.93
2018-05-06T13:45:21.648Z,4.43
2018-05-06T13:47:49.963Z,3.40
2018-05-06T13:50:18.339Z,4.27
2018-05-06T13:52:46.800Z,3.57
2018-05-06T13:55:15.091Z,2.77
2018-05-06T13:57:43.624Z,4.03
2018-05-06T14:00:11.887Z,3.23
2018-05-06T14:02:40.197Z,2.83
2018-05-06T14:05:08.492Z,4.87
2018-05-06T14:07:37.560Z,3.23
2018-05-06T14:10:05.939Z,4.03
2018-05-06T14:12:34.354Z,3.90
2018-05-06T14:15:02.603Z,4.03
2018-05-06T14:17:31.699Z,4.00
2018-05-06T14:20:00.027Z,3.50
2018-05-06T14:22:28.379Z,3.33
2018-05-06T14:24:56.739Z,3.17
2018-05-06T14:27:25.008Z,3.80
2018-05-06T14:29:53.337Z,4.03
2018-05-06T14:32:21.627Z,4.37
2018-05-06T14:34:49.906Z,5.33
2018-05-06T14:37:18.569Z,4.40
2018-05-06T14:39:46.862Z,4.27
2018-05-06T14:42:15.199Z,6.70
2018-05-06T14:44:44.643Z,5.33
2018-05-06T14:47:24.868Z,5.07
2018-05-06T14:49:53.150Z,4.47
2018-05-06T14:52:22.207Z,6.30
2018-05-06T14:54:50.488Z,4.43
2018-05-06T14:57:18.771Z,4.40
2018-05-06T14:59:47.072Z,3.13
2018-05-06T15:02:16.154Z,5.97
2018-05-06T15:04:44.423Z,4.83
2018-05-06T15:07:13.863Z,2.87
2018-05-06T15:09:42.189Z,4.27
2018-05-06T15:12:17.325Z,3.67
2018-05-06T15:14:45.740Z,5.20
2018-05-06T15:17:14.787Z,3.80
2018-05-06T15:19:43.991Z,3.63
2018-05-06T15:22:12.296Z,3.77
2018-05-06T15:24:40.673Z,3.50
2018-05-06T15:27:09.773Z,3.17
2018-05-06T15:29:38.072Z,2.90
2018-05-06T15:32:06.363Z,4.50
2018-05-06T15:34:34.685Z,5.07
2018-05-06T15:37:02.967Z,3.77
2018-05-06T15:39:31.284Z,4.93
2018-05-06T15:42:00.427Z,4.47
2018-05-06T15:44:29.355Z,3.77
2018-05-06T15:46:57.683Z,3.70
2018-05-06T15:49:25.988Z,4.70
2018-05-06T15:51:55.057Z,5.00
2018-05-06T15:54:23.403Z,5.07
2018-05-06T15:56:51.695Z,4.30
2018-05-06T15:59:19.986Z,6.60
2018-05-06T16:02:00.285Z,6.33
2018-05-06T16:04:29.347Z,5.27
2018-05-06T16:06:57.622Z,4.63
2018-05-06T16:09:25.908Z,5.97
2018-05-06T16:11:54.228Z,5.20
2018-05-06T16:14:22.468Z,4.37
2018-05-06T16:16:51.555Z,5.20
2018-05-06T16:19:19.940Z,5.60
2018-05-06T16:21:49.142Z,5.27
2018-05-06T16:24:17.515Z,7.30
2018-05-06T16:26:45.901Z,5.47
2018-05-06T16:29:14.405Z,7.13
2018-05-06T16:31:43.615Z,7.27
2018-05-06T16:34:11.903Z,6.80
2018-05-06T16:36:40.226Z,5.50
2018-05-06T16:39:09.397Z,6.67
2018-05-06T16:41:37.714Z,6.47
2018-05-06T16:44:06.078Z,6.30
2018-05-06T16:46:34.399Z,6.20
2018-05-06T16:49:02.724Z,4.40
2018-05-06T16:51:31.038Z,3.20
2018-05-06T16:53:59.331Z,4.47
2018-05-06T16:56:27.666Z,8.73
2018-05-06T16:58:55.919Z,6.10
2018-05-06T17:01:24.204Z,7.73
2018-05-06T17:03:52.609Z,6.00
2018-05-06T17:06:20.939Z,5.77
2018-05-06T17:08:49.288Z,6.70
2018-05-06T17:11:17.634Z,4.57
2018-05-06T17:13:45.906Z,5.33
2018-05-06T17:16:15.718Z,5.93
2018-05-06T17:18:44.009Z,5.10
2018-05-06T17:21:12.315Z,5.03
2018-05-06T17:23:40.637Z,4.67
2018-05-06T17:26:08.916Z,5.47
2018-05-06T17:28:37.310Z,4.03
2018-05-06T17:31:05.683Z,3.50
2018-05-06T17:33:34.756Z,3.93
2018-05-06T17:36:03.061Z,2.47
2018-05-06T17:38:31.396Z,2.80
2018-05-06T17:40:59.699Z,3.90
2018-05-06T17:43:27.951Z,2.67
2018-05-06T17:45:56.530Z,3.40
2018-05-06T17:48:24.855Z,2.80
2018-05-06T17:50:53.280Z,2.60
2018-05-06T17:53:21.607Z,2.33
2018-05-06T17:55:49.911Z,2.63
2018-05-06T17:58:18.287Z,3.40
2018-05-06T18:00:46.755Z,3.20
2018-05-06T18:03:15.799Z,2.57
2018-05-06T18:05:44.123Z,2.67
2018-05-06T18:08:12.461Z,2.37
2018-05-06T18:10:41.495Z,2.83
2018-05-06T18:13:10.556Z,2.70
2018-05-06T18:15:38.847Z,3.37
2018-05-06T18:18:07.136Z,2.73
2018-05-06T18:20:36.203Z,3.37
2018-05-06T18:23:04.516Z,3.83
2018-05-06T18:25:32.846Z,2.40
2018-05-06T18:28:01.125Z,2.70
2018-05-06T18:30:29.993Z,2.83
2018-05-06T18:32:59.017Z,4.40
2018-05-06T18:35:29.208Z,3.33
2018-05-06T18:37:57.484Z,3.07
2018-05-06T18:40:25.774Z,3.17
2018-05-06T18:42:55.702Z,3.40
2018-05-06T18:45:23.995Z,3.33
2018-05-06T18:47:52.312Z,3.13
2018-05-06T18:50:21.450Z,2.60
2018-05-06T18:52:49.758Z,3.77
2018-05-06T18:55:18.800Z,4.97
2018-05-06T18:57:47.121Z,3.00
2018-05-06T19:00:15.528Z,6.23
2018-05-06T19:02:43.906Z,5.30
2018-05-06T19:05:13.117Z,4.57
2018-05-06T19:07:41.431Z,4.00
2018-05-06T19:10:09.707Z,3.60
2018-05-06T19:12:38.007Z,5.00
2018-05-06T19:15:07.117Z,3.20
2018-05-06T19:17:36.220Z,2.70
2018-05-06T19:20:05.276Z,4.97
2018-05-06T19:22:33.555Z,5.27
2018-05-06T19:25:02.560Z,4.00
2018-05-06T19:27:30.842Z,3.83
2018-05-06T19:29:59.896Z,3.47
2018-05-06T19:32:28.211Z,3.03
2018-05-06T19:34:57.285Z,2.80
2018-05-06T19:37:25.607Z,3.50
2018-05-06T19:39:55.629Z,3.10
2018-05-06T19:42:24.743Z,3.10
2018-05-06T19:44:53.399Z,2.90
2018-05-06T19:47:22.486Z,5.17
2018-05-06T19:49:51.560Z,3.10
2018-05-06T19:52:19.873Z,2.70
2018-05-06T19:54:48.247Z,2.33
2018-05-06T19:57:17.296Z,2.87
2018-05-06T19:59:45.588Z,2.93
2018-05-06T20:02:13.898Z,3.63
2018-05-06T20:04:42.207Z,3.30
2018-05-06T20:07:10.525Z,3.10
2018-05-06T20:09:38.831Z,4.67
2018-05-06T20:12:07.136Z,2.70
2018-05-06T20:14:35.421Z,3.23
2018-05-06T20:17:03.736Z,2.80
2018-05-06T20:19:32.038Z,3.00
2018-05-06T20:22:00.371Z,3.00
2018-05-06T20:24:28.612Z,2.70
2018-05-06T20:26:56.898Z,3.33
2018-05-06T20:29:25.167Z,3.67
2018-05-06T20:31:53.485Z,3.73
2018-05-06T20:34:21.737Z,3.03
2018-05-06T20:36:50.065Z,3.20
2018-05-06T20:39:19.116Z,2.93
2018-05-06T20:41:49.419Z,3.37
2018-05-06T20:44:17.851Z,4.30
2018-05-06T20:46:46.952Z,2.47
2018-05-06T20:49:15.255Z,2.50
2018-05-06T20:51:43.567Z,2.87
2018-05-06T20:54:11.992Z,6.83
2018-05-06T20:56:40.308Z,3.07
2018-05-06T20:59:08.583Z,3.23
2018-05-06T21:01:36.889Z,4.67
2018-05-06T21:04:05.275Z,2.50
2018-05-06T21:06:33.544Z,3.10
2018-05-06T21:09:03.788Z,2.90
2018-05-06T21:11:32.089Z,2.20
2018-05-06T21:14:00.419Z,2.17
2018-05-06T21:16:28.692Z,4.63
2018-05-06T21:18:56.987Z,4.70
2018-05-06T21:21:25.268Z,2.93
2018-05-06T21:23:53.712Z,3.33
2018-05-06T21:26:22.117Z,2.73
2018-05-06T21:28:50.669Z,2.60
2018-05-06T21:31:19.969Z,2.70
2018-05-06T21:33:48.377Z,2.47
2018-05-06T21:36:16.831Z,3.50
2018-05-06T21:38:46.006Z,2.20
2018-05-06T21:41:15.684Z,3.30
2018-05-06T21:43:43.943Z,3.33
2018-05-06T21:46:12.225Z,3.50
2018-05-06T21:48:40.657Z,2.43
2018-05-06T21:51:09.113Z,3.37
2018-05-06T21:53:38.351Z,2.77
2018-05-06T21:56:06.811Z,2.83
2018-05-06T21:58:35.247Z,3.20
2018-05-06T22:01:03.572Z,2.50
2018-05-06T22:03:31.924Z,3.90
2018-05-06T22:06:00.998Z,3.67
2018-05-06T22:08:29.568Z,5.33
2018-05-06T22:10:58.795Z,4.00
2018-05-06T23:28:13.635Z,3.20
2018-05-06T23:30:42.008Z,3.20
2018-05-06T23:33:10.429Z,3.80
2018-05-06T23:35:39.016Z,2.47
2018-05-06T23:38:07.429Z,3.37
2018-05-06T23:40:35.762Z,3.67
2018-05-06T23:43:04.140Z,3.53
2018-05-06T23:45:32.603Z,3.40
2018-05-06T23:48:01.278Z,2.97
2018-05-06T23:50:29.775Z,5.30
2018-05-06T23:52:58.084Z,3.93
2018-05-06T23:55:26.492Z,4.07
2018-05-06T23:57:55.618Z,5.43
